sensor_id;sensor_type;location;lat;lon;timestamp;P1;durP1;ratioP1;P2;durP2;ratioP2
17917;SDS011;9084;50.956;3.106;2022-12-18T00:00:59;33.73;;;23.27;;
17917;SDS011;9084;50.956;3.106;2022-12-18T00:03:27;32.17;;;21.67;;
17917;SDS011;9084;50.956;3.106;2022-12-18T00:05:54;30.93;;;21.40;;
17917;SDS011;9084;50.956;3.106;2022-12-18T00:08:20;31.53;;;21.57;;
17917;SDS011;9084;50.956;3.106;2022-12-18T00:10:45;33.63;;;22.53;;
17917;SDS011;9084;50.956;3.106;2022-12-18T00:13:14;33.73;;;21.43;;
17917;SDS011;9084;50.956;3.106;2022-12-18T00:15:40;30.00;;;21.87;;
17917;SDS011;9084;50.956;3.106;2022-12-18T00:18:06;31.20;;;21.77;;
17917;SDS011;9084;50.956;3.106;2022-12-18T00:20:37;31.87;;;21.20;;
17917;SDS011;9084;50.956;3.106;2022-12-18T00:23:05;33.90;;;23.63;;
17917;SDS011;9084;50.956;3.106;2022-12-18T00:25:34;32.70;;;23.47;;
17917;SDS011;9084;50.956;3.106;2022-12-18T00:28:01;36.67;;;23.23;;
17917;SDS011;9084;50.956;3.106;2022-12-18T00:30:28;35.40;;;22.73;;
17917;SDS011;9084;50.956;3.106;2022-12-18T00:32:54;35.63;;;23.77;;
17917;SDS011;9084;50.956;3.106;2022-12-18T00:35:22;37.07;;;24.57;;
17917;SDS011;9084;50.956;3.106;2022-12-18T00:37:48;35.37;;;24.10;;
17917;SDS011;9084;50.956;3.106;2022-12-18T00:40:13;36.50;;;23.80;;
17917;SDS011;9084;50.956;3.106;2022-12-18T00:42:41;40.17;;;24.27;;
17917;SDS011;9084;50.956;3.106;2022-12-18T00:45:26;34.30;;;24.23;;
17917;SDS011;9084;50.956;3.106;2022-12-18T00:47:56;34.97;;;23.43;;
17917;SDS011;9084;50.956;3.106;2022-12-18T00:50:22;31.17;;;22.97;;
17917;SDS011;9084;50.956;3.106;2022-12-18T00:52:48;33.20;;;22.93;;
17917;SDS011;9084;50.956;3.106;2022-12-18T00:55:15;33.87;;;22.73;;
17917;SDS011;9084;50.956;3.106;2022-12-18T00:57:41;33.47;;;22.43;;
17917;SDS011;9084;50.956;3.106;2022-12-18T01:00:13;33.50;;;22.57;;
17917;SDS011;9084;50.956;3.106;2022-12-18T01:02:40;36.27;;;23.30;;
17917;SDS011;9084;50.956;3.106;2022-12-18T01:05:06;36.23;;;23.37;;
17917;SDS011;9084;50.956;3.106;2022-12-18T01:07:33;36.87;;;23.30;;
17917;SDS011;9084;50.956;3.106;2022-12-18T01:09:59;35.20;;;23.67;;
17917;SDS011;9084;50.956;3.106;2022-12-18T01:12:25;34.67;;;23.53;;
17917;SDS011;9084;50.956;3.106;2022-12-18T01:14:51;38.73;;;23.73;;
17917;SDS011;9084;50.956;3.106;2022-12-18T01:17:17;35.97;;;23.40;;
17917;SDS011;9084;50.956;3.106;2022-12-18T01:19:42;37.07;;;24.53;;
17917;SDS011;9084;50.956;3.106;2022-12-18T01:22:10;37.60;;;24.23;;
17917;SDS011;9084;50.956;3.106;2022-12-18T01:24:36;37.40;;;23.43;;
17917;SDS011;9084;50.956;3.106;2022-12-18T01:27:04;35.80;;;23.40;;
17917;SDS011;9084;50.956;3.106;2022-12-18T01:29:30;36.03;;;23.60;;
17917;SDS011;9084;50.956;3.106;2022-12-18T01:31:58;33.93;;;23.27;;
17917;SDS011;9084;50.956;3.106;2022-12-18T01:34:24;40.50;;;23.93;;
17917;SDS011;9084;50.956;3.106;2022-12-18T01:36:50;36.67;;;23.80;;
17917;SDS011;9084;50.956;3.106;2022-12-18T01:39:17;36.57;;;23.40;;
17917;SDS011;9084;50.956;3.106;2022-12-18T01:41:43;35.47;;;23.07;;
17917;SDS011;9084;50.956;3.106;2022-12-18T01:47:28;36.67;;;23.73;;
17917;SDS011;9084;50.956;3.106;2022-12-18T01:50:11;85.57;;;58.37;;
17917;SDS011;9084;50.956;3.106;2022-12-18T01:52:43;69.60;;;53.17;;
17917;SDS011;9084;50.956;3.106;2022-12-18T01:55:13;38.93;;;27.40;;
17917;SDS011;9084;50.956;3.106;2022-12-18T01:57:42;39.97;;;24.03;;
17917;SDS011;9084;50.956;3.106;2022-12-18T02:00:10;33.30;;;23.17;;
17917;SDS011;9084;50.956;3.106;2022-12-18T02:02:41;33.60;;;22.50;;
17917;SDS011;9084;50.956;3.106;2022-12-18T02:05:08;34.27;;;22.57;;
17917;SDS011;9084;50.956;3.106;2022-12-18T02:18:35;31.10;;;23.07;;
17917;SDS011;9084;50.956;3.106;2022-12-18T02:21:40;34.83;;;23.13;;
17917;SDS011;9084;50.956;3.106;2022-12-18T02:24:29;31.40;;;22.67;;
17917;SDS011;9084;50.956;3.106;2022-12-18T02:27:05;32.50;;;22.40;;
17917;SDS011;9084;50.956;3.106;2022-12-18T02:29:38;30.30;;;22.27;;
17917;SDS011;9084;50.956;3.106;2022-12-18T02:32:10;30.63;;;21.27;;
17917;SDS011;9084;50.956;3.106;2022-12-18T02:34:40;31.67;;;24.03;;
17917;SDS011;9084;50.956;3.106;2022-12-18T02:37:08;30.57;;;22.27;;
17917;SDS011;9084;50.956;3.106;2022-12-18T02:39:39;30.87;;;21.70;;
17917;SDS011;9084;50.956;3.106;2022-12-18T02:42:07;31.70;;;22.53;;
17917;SDS011;9084;50.956;3.106;2022-12-18T02:44:50;27.70;;;21.23;;
17917;SDS011;9084;50.956;3.106;2022-12-18T02:47:18;30.10;;;20.73;;
17917;SDS011;9084;50.956;3.106;2022-12-18T02:50:10;25.40;;;20.03;;
17917;SDS011;9084;50.956;3.106;2022-12-18T02:53:27;27.73;;;19.47;;
17917;SDS011;9084;50.956;3.106;2022-12-18T02:58:41;26.17;;;18.97;;
17917;SDS011;9084;50.956;3.106;2022-12-18T03:01:30;22.13;;;17.53;;
17917;SDS011;9084;50.956;3.106;2022-12-18T03:04:12;24.30;;;18.07;;
17917;SDS011;9084;50.956;3.106;2022-12-18T03:07:08;24.33;;;17.60;;
17917;SDS011;9084;50.956;3.106;2022-12-18T03:09:41;22.57;;;17.20;;
17917;SDS011;9084;50.956;3.106;2022-12-18T03:12:30;21.63;;;17.17;;
17917;SDS011;9084;50.956;3.106;2022-12-18T03:15:24;23.87;;;16.23;;
17917;SDS011;9084;50.956;3.106;2022-12-18T03:17:52;23.10;;;20.57;;
17917;SDS011;9084;50.956;3.106;2022-12-18T03:20:27;24.43;;;16.90;;
17917;SDS011;9084;50.956;3.106;2022-12-18T03:23:09;20.13;;;15.83;;
17917;SDS011;9084;50.956;3.106;2022-12-18T03:25:42;20.07;;;15.83;;
17917;SDS011;9084;50.956;3.106;2022-12-18T03:28:12;22.33;;;16.67;;
17917;SDS011;9084;50.956;3.106;2022-12-18T03:30:41;21.50;;;15.73;;
17917;SDS011;9084;50.956;3.106;2022-12-18T03:33:27;18.27;;;14.43;;
17917;SDS011;9084;50.956;3.106;2022-12-18T03:35:59;19.17;;;15.30;;
17917;SDS011;9084;50.956;3.106;2022-12-18T03:38:25;19.03;;;15.33;;
17917;SDS011;9084;50.956;3.106;2022-12-18T03:46:12;18.23;;;13.93;;
17917;SDS011;9084;50.956;3.106;2022-12-18T03:49:10;17.57;;;13.93;;
17917;SDS011;9084;50.956;3.106;2022-12-18T03:54:29;19.93;;;14.90;;
17917;SDS011;9084;50.956;3.106;2022-12-18T03:57:04;20.77;;;14.33;;
17917;SDS011;9084;50.956;3.106;2022-12-18T03:59:38;18.23;;;13.67;;
17917;SDS011;9084;50.956;3.106;2022-12-18T04:02:06;16.67;;;13.13;;
17917;SDS011;9084;50.956;3.106;2022-12-18T04:04:35;15.57;;;13.00;;
17917;SDS011;9084;50.956;3.106;2022-12-18T04:07:05;17.77;;;13.97;;
17917;SDS011;9084;50.956;3.106;2022-12-18T04:09:31;18.80;;;14.10;;
17917;SDS011;9084;50.956;3.106;2022-12-18T04:12:01;18.13;;;13.43;;
17917;SDS011;9084;50.956;3.106;2022-12-18T04:14:26;17.27;;;12.83;;
17917;SDS011;9084;50.956;3.106;2022-12-18T04:16:52;17.97;;;12.67;;
17917;SDS011;9084;50.956;3.106;2022-12-18T04:19:20;19.87;;;13.47;;
17917;SDS011;9084;50.956;3.106;2022-12-18T04:21:48;16.53;;;13.30;;
17917;SDS011;9084;50.956;3.106;2022-12-18T04:24:14;15.07;;;12.53;;
17917;SDS011;9084;50.956;3.106;2022-12-18T04:26:44;18.00;;;12.90;;
17917;SDS011;9084;50.956;3.106;2022-12-18T04:29:10;18.13;;;13.37;;
17917;SDS011;9084;50.956;3.106;2022-12-18T04:31:36;17.47;;;13.13;;
17917;SDS011;9084;50.956;3.106;2022-12-18T04:34:02;17.83;;;13.33;;
17917;SDS011;9084;50.956;3.106;2022-12-18T04:36:30;16.77;;;13.10;;
17917;SDS011;9084;50.956;3.106;2022-12-18T04:38:56;19.33;;;14.10;;
17917;SDS011;9084;50.956;3.106;2022-12-18T04:41:22;15.37;;;12.73;;
17917;SDS011;9084;50.956;3.106;2022-12-18T04:43:50;16.73;;;13.47;;
17917;SDS011;9084;50.956;3.106;2022-12-18T04:46:17;19.20;;;13.97;;
17917;SDS011;9084;50.956;3.106;2022-12-18T04:48:45;16.43;;;12.77;;
17917;SDS011;9084;50.956;3.106;2022-12-18T04:51:11;17.47;;;13.43;;
17917;SDS011;9084;50.956;3.106;2022-12-18T04:53:37;18.43;;;13.63;;
17917;SDS011;9084;50.956;3.106;2022-12-18T04:56:07;19.07;;;13.83;;
17917;SDS011;9084;50.956;3.106;2022-12-18T04:58:38;19.20;;;12.63;;
17917;SDS011;9084;50.956;3.106;2022-12-18T05:01:07;29.73;;;22.13;;
17917;SDS011;9084;50.956;3.106;2022-12-18T05:03:35;41.47;;;29.60;;
17917;SDS011;9084;50.956;3.106;2022-12-18T05:06:04;37.63;;;33.63;;
17917;SDS011;9084;50.956;3.106;2022-12-18T05:08:30;30.03;;;25.93;;
17917;SDS011;9084;50.956;3.106;2022-12-18T05:11:00;36.10;;;32.30;;
17917;SDS011;9084;50.956;3.106;2022-12-18T05:13:28;22.40;;;19.53;;
17917;SDS011;9084;50.956;3.106;2022-12-18T05:15:57;22.17;;;15.60;;
17917;SDS011;9084;50.956;3.106;2022-12-18T05:18:25;19.57;;;15.53;;
17917;SDS011;9084;50.956;3.106;2022-12-18T05:20:51;18.80;;;14.20;;
17917;SDS011;9084;50.956;3.106;2022-12-18T05:23:18;19.53;;;15.00;;
17917;SDS011;9084;50.956;3.106;2022-12-18T05:25:55;18.80;;;15.43;;
17917;SDS011;9084;50.956;3.106;2022-12-18T05:28:25;19.37;;;15.43;;
17917;SDS011;9084;50.956;3.106;2022-12-18T05:30:53;17.33;;;13.87;;
17917;SDS011;9084;50.956;3.106;2022-12-18T05:33:22;15.67;;;12.33;;
17917;SDS011;9084;50.956;3.106;2022-12-18T05:35:59;17.17;;;13.60;;
17917;SDS011;9084;50.956;3.106;2022-12-18T05:38:26;18.70;;;13.73;;
17917;SDS011;9084;50.956;3.106;2022-12-18T05:40:56;17.23;;;13.23;;
17917;SDS011;9084;50.956;3.106;2022-12-18T05:43:22;15.33;;;12.20;;
17917;SDS011;9084;50.956;3.106;2022-12-18T05:45:51;19.57;;;13.17;;
17917;SDS011;9084;50.956;3.106;2022-12-18T05:48:20;17.33;;;13.67;;
17917;SDS011;9084;50.956;3.106;2022-12-18T05:50:49;17.57;;;13.40;;
17917;SDS011;9084;50.956;3.106;2022-12-18T05:53:17;18.80;;;13.77;;
17917;SDS011;9084;50.956;3.106;2022-12-18T05:55:47;14.43;;;11.50;;
17917;SDS011;9084;50.956;3.106;2022-12-18T05:58:15;17.10;;;12.90;;
17917;SDS011;9084;50.956;3.106;2022-12-18T06:00:45;16.13;;;12.63;;
17917;SDS011;9084;50.956;3.106;2022-12-18T06:03:13;15.70;;;12.10;;
17917;SDS011;9084;50.956;3.106;2022-12-18T06:05:40;15.33;;;11.93;;
17917;SDS011;9084;50.956;3.106;2022-12-18T06:08:10;14.43;;;11.77;;
17917;SDS011;9084;50.956;3.106;2022-12-18T06:10:38;14.03;;;11.57;;
17917;SDS011;9084;50.956;3.106;2022-12-18T06:13:04;14.30;;;10.93;;
17917;SDS011;9084;50.956;3.106;2022-12-18T06:15:31;14.17;;;10.50;;
17917;SDS011;9084;50.956;3.106;2022-12-18T06:18:00;15.20;;;11.13;;
17917;SDS011;9084;50.956;3.106;2022-12-18T06:20:31;10.73;;;8.83;;
17917;SDS011;9084;50.956;3.106;2022-12-18T06:22:57;11.03;;;9.07;;
17917;SDS011;9084;50.956;3.106;2022-12-18T06:25:23;13.73;;;10.10;;
17917;SDS011;9084;50.956;3.106;2022-12-18T06:27:49;13.27;;;10.37;;
17917;SDS011;9084;50.956;3.106;2022-12-18T06:30:15;12.97;;;9.93;;
17917;SDS011;9084;50.956;3.106;2022-12-18T06:32:41;12.70;;;9.77;;
17917;SDS011;9084;50.956;3.106;2022-12-18T06:35:09;13.40;;;10.00;;
17917;SDS011;9084;50.956;3.106;2022-12-18T06:37:36;13.40;;;9.47;;
17917;SDS011;9084;50.956;3.106;2022-12-18T06:40:02;11.73;;;9.27;;
17917;SDS011;9084;50.956;3.106;2022-12-18T06:42:28;12.00;;;10.07;;
17917;SDS011;9084;50.956;3.106;2022-12-18T06:44:54;13.87;;;9.50;;
17917;SDS011;9084;50.956;3.106;2022-12-18T06:47:22;11.23;;;9.47;;
17917;SDS011;9084;50.956;3.106;2022-12-18T06:49:49;11.10;;;9.20;;
17917;SDS011;9084;50.956;3.106;2022-12-18T06:52:16;12.13;;;9.03;;
17917;SDS011;9084;50.956;3.106;2022-12-18T06:54:42;13.07;;;9.70;;
17917;SDS011;9084;50.956;3.106;2022-12-18T06:57:08;11.23;;;8.80;;
17917;SDS011;9084;50.956;3.106;2022-12-18T06:59:36;10.53;;;8.70;;
17917;SDS011;9084;50.956;3.106;2022-12-18T07:02:02;10.07;;;7.97;;
17917;SDS011;9084;50.956;3.106;2022-12-18T07:04:28;11.57;;;8.80;;
17917;SDS011;9084;50.956;3.106;2022-12-18T07:06:55;11.33;;;9.17;;
17917;SDS011;9084;50.956;3.106;2022-12-18T07:09:20;10.07;;;8.53;;
17917;SDS011;9084;50.956;3.106;2022-12-18T07:11:48;10.90;;;8.87;;
17917;SDS011;9084;50.956;3.106;2022-12-18T07:14:14;12.50;;;8.63;;
17917;SDS011;9084;50.956;3.106;2022-12-18T07:16:40;10.80;;;8.30;;
17917;SDS011;9084;50.956;3.106;2022-12-18T07:19:05;14.77;;;12.73;;
17917;SDS011;9084;50.956;3.106;2022-12-18T07:21:31;16.23;;;14.20;;
17917;SDS011;9084;50.956;3.106;2022-12-18T07:23:57;13.43;;;12.03;;
17917;SDS011;9084;50.956;3.106;2022-12-18T07:26:22;13.80;;;12.40;;
17917;SDS011;9084;50.956;3.106;2022-12-18T07:28:49;12.13;;;10.83;;
17917;SDS011;9084;50.956;3.106;2022-12-18T07:31:18;11.63;;;9.77;;
17917;SDS011;9084;50.956;3.106;2022-12-18T07:33:46;10.80;;;9.47;;
17917;SDS011;9084;50.956;3.106;2022-12-18T07:36:12;10.73;;;9.63;;
17917;SDS011;9084;50.956;3.106;2022-12-18T07:38:39;11.70;;;10.03;;
17917;SDS011;9084;50.956;3.106;2022-12-18T07:41:09;13.37;;;10.10;;
17917;SDS011;9084;50.956;3.106;2022-12-18T07:43:36;12.57;;;9.90;;
17917;SDS011;9084;50.956;3.106;2022-12-18T07:46:03;11.77;;;9.30;;
17917;SDS011;9084;50.956;3.106;2022-12-18T07:48:31;10.70;;;8.70;;
17917;SDS011;9084;50.956;3.106;2022-12-18T07:51:04;11.20;;;8.70;;
17917;SDS011;9084;50.956;3.106;2022-12-18T07:53:35;10.53;;;9.43;;
17917;SDS011;9084;50.956;3.106;2022-12-18T07:56:03;10.13;;;7.97;;
17917;SDS011;9084;50.956;3.106;2022-12-18T07:58:37;10.53;;;7.80;;
17917;SDS011;9084;50.956;3.106;2022-12-18T08:01:07;11.77;;;8.63;;
17917;SDS011;9084;50.956;3.106;2022-12-18T08:03:34;12.37;;;8.63;;
17917;SDS011;9084;50.956;3.106;2022-12-18T08:06:02;11.90;;;9.37;;
17917;SDS011;9084;50.956;3.106;2022-12-18T08:08:29;11.27;;;8.30;;
17917;SDS011;9084;50.956;3.106;2022-12-18T08:10:56;10.07;;;8.67;;
17917;SDS011;9084;50.956;3.106;2022-12-18T08:13:22;9.80;;;7.77;;
17917;SDS011;9084;50.956;3.106;2022-12-18T08:16:00;11.43;;;8.43;;
17917;SDS011;9084;50.956;3.106;2022-12-18T08:18:31;9.00;;;7.57;;
17917;SDS011;9084;50.956;3.106;2022-12-18T08:21:10;10.57;;;8.13;;
17917;SDS011;9084;50.956;3.106;2022-12-18T08:23:41;9.57;;;8.33;;
17917;SDS011;9084;50.956;3.106;2022-12-18T08:26:07;12.03;;;8.03;;
17917;SDS011;9084;50.956;3.106;2022-12-18T08:28:34;11.37;;;8.50;;
17917;SDS011;9084;50.956;3.106;2022-12-18T08:31:00;10.90;;;8.83;;
17917;SDS011;9084;50.956;3.106;2022-12-18T08:33:26;13.63;;;9.67;;
17917;SDS011;9084;50.956;3.106;2022-12-18T08:35:52;10.77;;;8.00;;
17917;SDS011;9084;50.956;3.106;2022-12-18T08:38:20;11.80;;;8.93;;
17917;SDS011;9084;50.956;3.106;2022-12-18T08:40:48;10.83;;;8.40;;
17917;SDS011;9084;50.956;3.106;2022-12-18T08:43:19;11.40;;;8.43;;
17917;SDS011;9084;50.956;3.106;2022-12-18T08:46:06;11.53;;;8.23;;
17917;SDS011;9084;50.956;3.106;2022-12-18T08:48:32;11.43;;;7.77;;
17917;SDS011;9084;50.956;3.106;2022-12-18T08:50:58;19.60;;;13.50;;
17917;SDS011;9084;50.956;3.106;2022-12-18T08:53:24;12.27;;;7.17;;
17917;SDS011;9084;50.956;3.106;2022-12-18T08:55:55;12.00;;;10.37;;
17917;SDS011;9084;50.956;3.106;2022-12-18T08:58:22;12.20;;;9.67;;
17917;SDS011;9084;50.956;3.106;2022-12-18T09:00:48;11.00;;;8.33;;
17917;SDS011;9084;50.956;3.106;2022-12-18T09:03:14;10.37;;;7.33;;
17917;SDS011;9084;50.956;3.106;2022-12-18T09:05:41;10.87;;;7.70;;
17917;SDS011;9084;50.956;3.106;2022-12-18T09:08:07;12.87;;;8.00;;
17917;SDS011;9084;50.956;3.106;2022-12-18T09:10:33;14.03;;;8.83;;
17917;SDS011;9084;50.956;3.106;2022-12-18T09:13:01;15.37;;;12.10;;
17917;SDS011;9084;50.956;3.106;2022-12-18T09:15:26;14.30;;;11.47;;
17917;SDS011;9084;50.956;3.106;2022-12-18T09:17:52;10.43;;;8.77;;
17917;SDS011;9084;50.956;3.106;2022-12-18T09:20:18;11.33;;;8.43;;
17917;SDS011;9084;50.956;3.106;2022-12-18T09:22:45;11.40;;;8.57;;
17917;SDS011;9084;50.956;3.106;2022-12-18T09:25:11;11.03;;;9.07;;
17917;SDS011;9084;50.956;3.106;2022-12-18T09:27:38;10.50;;;8.10;;
17917;SDS011;9084;50.956;3.106;2022-12-18T09:30:05;13.13;;;8.33;;
17917;SDS011;9084;50.956;3.106;2022-12-18T09:32:31;11.17;;;8.30;;
17917;SDS011;9084;50.956;3.106;2022-12-18T09:34:59;11.37;;;8.63;;
17917;SDS011;9084;50.956;3.106;2022-12-18T09:37:24;10.73;;;8.23;;
17917;SDS011;9084;50.956;3.106;2022-12-18T09:39:50;10.83;;;9.10;;
17917;SDS011;9084;50.956;3.106;2022-12-18T09:42:20;10.77;;;8.73;;
17917;SDS011;9084;50.956;3.106;2022-12-18T09:44:52;9.80;;;7.97;;
17917;SDS011;9084;50.956;3.106;2022-12-18T09:49:59;13.03;;;9.17;;
17917;SDS011;9084;50.956;3.106;2022-12-18T09:52:30;11.57;;;8.17;;
17917;SDS011;9084;50.956;3.106;2022-12-18T09:55:05;11.00;;;8.47;;
17917;SDS011;9084;50.956;3.106;2022-12-18T09:57:35;11.77;;;9.73;;
17917;SDS011;9084;50.956;3.106;2022-12-18T10:00:22;11.67;;;8.73;;
17917;SDS011;9084;50.956;3.106;2022-12-18T10:02:52;11.90;;;7.93;;
17917;SDS011;9084;50.956;3.106;2022-12-18T10:08:13;10.87;;;8.70;;
17917;SDS011;9084;50.956;3.106;2022-12-18T10:10:57;16.03;;;11.40;;
17917;SDS011;9084;50.956;3.106;2022-12-18T10:13:46;24.97;;;18.67;;
17917;SDS011;9084;50.956;3.106;2022-12-18T10:16:34;15.27;;;12.50;;
17917;SDS011;9084;50.956;3.106;2022-12-18T10:19:18;14.77;;;10.93;;
17917;SDS011;9084;50.956;3.106;2022-12-18T10:22:01;12.83;;;10.50;;
17917;SDS011;9084;50.956;3.106;2022-12-18T10:25:16;13.13;;;10.30;;
17917;SDS011;9084;50.956;3.106;2022-12-18T10:27:53;12.27;;;9.77;;
17917;SDS011;9084;50.956;3.106;2022-12-18T10:30:23;14.17;;;9.77;;
17917;SDS011;9084;50.956;3.106;2022-12-18T10:32:50;12.53;;;10.00;;
17917;SDS011;9084;50.956;3.106;2022-12-18T10:35:21;12.83;;;9.83;;
17917;SDS011;9084;50.956;3.106;2022-12-18T10:43:21;13.43;;;10.13;;
17917;SDS011;9084;50.956;3.106;2022-12-18T10:45:59;15.27;;;12.40;;
17917;SDS011;9084;50.956;3.106;2022-12-18T10:51:26;17.10;;;12.00;;
17917;SDS011;9084;50.956;3.106;2022-12-18T10:56:44;14.27;;;10.50;;
17917;SDS011;9084;50.956;3.106;2022-12-18T10:59:11;18.13;;;12.07;;
17917;SDS011;9084;50.956;3.106;2022-12-18T11:04:24;15.47;;;11.67;;
17917;SDS011;9084;50.956;3.106;2022-12-18T11:07:02;15.53;;;11.03;;
17917;SDS011;9084;50.956;3.106;2022-12-18T11:09:36;13.53;;;11.43;;
17917;SDS011;9084;50.956;3.106;2022-12-18T11:12:15;14.43;;;10.97;;
17917;SDS011;9084;50.956;3.106;2022-12-18T11:14:48;15.73;;;11.90;;
17917;SDS011;9084;50.956;3.106;2022-12-18T11:17:20;15.00;;;11.57;;
17917;SDS011;9084;50.956;3.106;2022-12-18T11:19:53;14.20;;;11.40;;
17917;SDS011;9084;50.956;3.106;2022-12-18T11:22:23;14.40;;;11.57;;
17917;SDS011;9084;50.956;3.106;2022-12-18T11:24:57;17.20;;;12.17;;
17917;SDS011;9084;50.956;3.106;2022-12-18T11:27:32;16.73;;;12.90;;
17917;SDS011;9084;50.956;3.106;2022-12-18T11:33:07;18.03;;;12.80;;
17917;SDS011;9084;50.956;3.106;2022-12-18T11:38:12;15.50;;;12.10;;
17917;SDS011;9084;50.956;3.106;2022-12-18T11:40:43;15.43;;;12.23;;
17917;SDS011;9084;50.956;3.106;2022-12-18T11:43:25;18.07;;;13.47;;
17917;SDS011;9084;50.956;3.106;2022-12-18T11:46:03;17.47;;;12.67;;
17917;SDS011;9084;50.956;3.106;2022-12-18T11:48:41;15.43;;;11.63;;
17917;SDS011;9084;50.956;3.106;2022-12-18T11:51:17;18.63;;;13.97;;
17917;SDS011;9084;50.956;3.106;2022-12-18T11:53:52;17.23;;;14.40;;
17917;SDS011;9084;50.956;3.106;2022-12-18T11:56:35;18.03;;;14.40;;
17917;SDS011;9084;50.956;3.106;2022-12-18T12:01:55;18.60;;;13.47;;
17917;SDS011;9084;50.956;3.106;2022-12-18T12:15:02;17.87;;;14.03;;
17917;SDS011;9084;50.956;3.106;2022-12-18T12:17:42;17.83;;;12.80;;
17917;SDS011;9084;50.956;3.106;2022-12-18T12:26:27;15.77;;;13.07;;
17917;SDS011;9084;50.956;3.106;2022-12-18T12:37:05;20.33;;;15.67;;
17917;SDS011;9084;50.956;3.106;2022-12-18T12:39:40;19.03;;;14.20;;
17917;SDS011;9084;50.956;3.106;2022-12-18T12:42:14;16.60;;;13.23;;
17917;SDS011;9084;50.956;3.106;2022-12-18T12:45:04;16.40;;;13.23;;
17917;SDS011;9084;50.956;3.106;2022-12-18T12:47:36;21.27;;;16.80;;
17917;SDS011;9084;50.956;3.106;2022-12-18T12:50:11;17.23;;;13.70;;
17917;SDS011;9084;50.956;3.106;2022-12-18T12:52:42;18.23;;;13.73;;
17917;SDS011;9084;50.956;3.106;2022-12-18T12:55:15;16.13;;;13.37;;
17917;SDS011;9084;50.956;3.106;2022-12-18T13:00:42;16.80;;;13.30;;
17917;SDS011;9084;50.956;3.106;2022-12-18T13:05:56;20.30;;;14.27;;
17917;SDS011;9084;50.956;3.106;2022-12-18T13:08:29;17.87;;;13.20;;
17917;SDS011;9084;50.956;3.106;2022-12-18T13:10:59;20.73;;;14.43;;
17917;SDS011;9084;50.956;3.106;2022-12-18T13:13:48;17.87;;;13.63;;
17917;SDS011;9084;50.956;3.106;2022-12-18T13:16:24;22.70;;;16.20;;
17917;SDS011;9084;50.956;3.106;2022-12-18T13:18:55;17.20;;;12.63;;
17917;SDS011;9084;50.956;3.106;2022-12-18T13:23:54;19.80;;;14.53;;
17917;SDS011;9084;50.956;3.106;2022-12-18T13:28:53;16.73;;;13.40;;
17917;SDS011;9084;50.956;3.106;2022-12-18T13:31:57;16.67;;;13.87;;
17917;SDS011;9084;50.956;3.106;2022-12-18T13:34:21;19.47;;;14.00;;
17917;SDS011;9084;50.956;3.106;2022-12-18T13:36:49;21.10;;;13.10;;
17917;SDS011;9084;50.956;3.106;2022-12-18T13:41:46;15.77;;;13.40;;
17917;SDS011;9084;50.956;3.106;2022-12-18T13:44:52;19.37;;;13.90;;
17917;SDS011;9084;50.956;3.106;2022-12-18T13:47:31;19.37;;;14.27;;
17917;SDS011;9084;50.956;3.106;2022-12-18T13:50:43;18.67;;;13.67;;
17917;SDS011;9084;50.956;3.106;2022-12-18T13:52:51;19.93;;;14.30;;
17917;SDS011;9084;50.956;3.106;2022-12-18T13:55:18;17.80;;;13.17;;
17917;SDS011;9084;50.956;3.106;2022-12-18T13:57:48;19.23;;;13.30;;
17917;SDS011;9084;50.956;3.106;2022-12-18T14:02:56;18.07;;;14.00;;
17917;SDS011;9084;50.956;3.106;2022-12-18T14:05:26;18.63;;;13.63;;
17917;SDS011;9084;50.956;3.106;2022-12-18T14:07:53;19.53;;;15.40;;
17917;SDS011;9084;50.956;3.106;2022-12-18T14:10:20;17.70;;;14.37;;
17917;SDS011;9084;50.956;3.106;2022-12-18T14:12:47;16.67;;;13.23;;
17917;SDS011;9084;50.956;3.106;2022-12-18T14:15:25;18.60;;;14.53;;
17917;SDS011;9084;50.956;3.106;2022-12-18T14:18:03;18.93;;;14.73;;
17917;SDS011;9084;50.956;3.106;2022-12-18T14:20:34;17.43;;;13.23;;
17917;SDS011;9084;50.956;3.106;2022-12-18T14:23:01;19.27;;;14.17;;
17917;SDS011;9084;50.956;3.106;2022-12-18T14:25:27;19.30;;;13.30;;
17917;SDS011;9084;50.956;3.106;2022-12-18T14:30:36;18.87;;;13.83;;
17917;SDS011;9084;50.956;3.106;2022-12-18T14:33:13;18.47;;;12.27;;
17917;SDS011;9084;50.956;3.106;2022-12-18T14:35:42;18.57;;;12.50;;
17917;SDS011;9084;50.956;3.106;2022-12-18T14:40:54;19.00;;;13.03;;
17917;SDS011;9084;50.956;3.106;2022-12-18T14:43:21;19.17;;;13.03;;
17917;SDS011;9084;50.956;3.106;2022-12-18T14:45:47;19.03;;;13.60;;
17917;SDS011;9084;50.956;3.106;2022-12-18T14:50:56;17.57;;;12.83;;
17917;SDS011;9084;50.956;3.106;2022-12-18T14:53:32;18.13;;;12.53;;
17917;SDS011;9084;50.956;3.106;2022-12-18T14:56:15;16.43;;;12.57;;
17917;SDS011;9084;50.956;3.106;2022-12-18T14:59:35;17.83;;;11.90;;
17917;SDS011;9084;50.956;3.106;2022-12-18T15:01:39;18.50;;;12.83;;
17917;SDS011;9084;50.956;3.106;2022-12-18T15:04:24;20.03;;;13.27;;
17917;SDS011;9084;50.956;3.106;2022-12-18T15:07:03;19.77;;;13.17;;
17917;SDS011;9084;50.956;3.106;2022-12-18T15:09:43;19.27;;;14.10;;
17917;SDS011;9084;50.956;3.106;2022-12-18T15:12:35;21.10;;;15.60;;
17917;SDS011;9084;50.956;3.106;2022-12-18T15:18:04;18.77;;;13.90;;
17917;SDS011;9084;50.956;3.106;2022-12-18T15:20:39;18.43;;;13.43;;
17917;SDS011;9084;50.956;3.106;2022-12-18T15:26:10;17.10;;;12.97;;
17917;SDS011;9084;50.956;3.106;2022-12-18T15:28:38;20.23;;;13.10;;
17917;SDS011;9084;50.956;3.106;2022-12-18T15:34:28;19.83;;;14.37;;
17917;SDS011;9084;50.956;3.106;2022-12-18T15:36:45;18.87;;;13.30;;
17917;SDS011;9084;50.956;3.106;2022-12-18T15:39:12;19.83;;;13.37;;
17917;SDS011;9084;50.956;3.106;2022-12-18T15:41:38;19.60;;;13.30;;
17917;SDS011;9084;50.956;3.106;2022-12-18T15:44:22;19.83;;;13.50;;
17917;SDS011;9084;50.956;3.106;2022-12-18T15:46:49;17.10;;;12.80;;
17917;SDS011;9084;50.956;3.106;2022-12-18T15:49:15;18.90;;;13.33;;
17917;SDS011;9084;50.956;3.106;2022-12-18T15:51:45;21.17;;;13.60;;
17917;SDS011;9084;50.956;3.106;2022-12-18T15:54:16;19.33;;;13.33;;
17917;SDS011;9084;50.956;3.106;2022-12-18T15:56:42;21.43;;;15.80;;
17917;SDS011;9084;50.956;3.106;2022-12-18T15:59:31;19.60;;;13.77;;
17917;SDS011;9084;50.956;3.106;2022-12-18T16:01:57;18.27;;;13.47;;
17917;SDS011;9084;50.956;3.106;2022-12-18T16:04:22;19.50;;;13.13;;
17917;SDS011;9084;50.956;3.106;2022-12-18T16:06:49;22.47;;;15.57;;
17917;SDS011;9084;50.956;3.106;2022-12-18T16:09:16;20.33;;;13.43;;
17917;SDS011;9084;50.956;3.106;2022-12-18T16:11:42;20.73;;;14.27;;
17917;SDS011;9084;50.956;3.106;2022-12-18T16:14:17;22.27;;;14.60;;
17917;SDS011;9084;50.956;3.106;2022-12-18T16:16:47;20.17;;;13.30;;
17917;SDS011;9084;50.956;3.106;2022-12-18T16:19:18;25.53;;;15.90;;
17917;SDS011;9084;50.956;3.106;2022-12-18T16:21:45;22.50;;;14.93;;
17917;SDS011;9084;50.956;3.106;2022-12-18T16:24:15;22.27;;;13.77;;
17917;SDS011;9084;50.956;3.106;2022-12-18T16:26:43;21.93;;;15.03;;
17917;SDS011;9084;50.956;3.106;2022-12-18T16:29:09;23.60;;;15.43;;
17917;SDS011;9084;50.956;3.106;2022-12-18T16:31:35;21.50;;;14.53;;
17917;SDS011;9084;50.956;3.106;2022-12-18T16:36:48;21.83;;;14.23;;
17917;SDS011;9084;50.956;3.106;2022-12-18T16:39:15;21.00;;;14.60;;
17917;SDS011;9084;50.956;3.106;2022-12-18T16:41:44;21.57;;;15.00;;
17917;SDS011;9084;50.956;3.106;2022-12-18T16:44:10;19.33;;;13.67;;
17917;SDS011;9084;50.956;3.106;2022-12-18T16:46:36;20.20;;;14.90;;
17917;SDS011;9084;50.956;3.106;2022-12-18T16:49:03;23.50;;;14.87;;
17917;SDS011;9084;50.956;3.106;2022-12-18T16:51:29;20.73;;;14.67;;
17917;SDS011;9084;50.956;3.106;2022-12-18T16:53:55;25.40;;;15.13;;